createdAt,value
2023-01-13T00:01:26.870Z,7.76
2023-01-13T00:03:54.106Z,7.79
2023-01-13T00:06:27.496Z,7.85
2023-01-13T00:08:55.388Z,7.81
2023-01-13T00:11:23.476Z,7.87
2023-01-13T00:13:50.702Z,7.87
2023-01-13T00:16:19.169Z,7.87
2023-01-13T00:18:47.169Z,7.85
2023-01-13T00:21:19.965Z,7.84
2023-01-13T00:23:47.499Z,7.81
2023-01-13T00:26:18.101Z,7.91
2023-01-13T00:28:45.547Z,7.81
2023-01-13T00:31:19.093Z,7.84
2023-01-13T00:33:46.930Z,7.74
2023-01-13T00:36:15.608Z,7.83
2023-01-13T00:38:43.458Z,7.87
2023-01-13T00:41:17.387Z,7.78
2023-01-13T00:43:44.565Z,7.83
2023-01-13T00:46:14.611Z,7.83
2023-01-13T00:48:41.942Z,7.87
2023-01-13T00:51:17.187Z,7.81
2023-01-13T00:53:47.216Z,7.88
2023-01-13T00:56:34.025Z,7.80
2023-01-13T00:59:05.512Z,7.77
2023-01-13T01:01:33.203Z,7.84
2023-01-13T01:04:00.363Z,7.71
2023-01-13T01:06:28.391Z,7.81
2023-01-13T01:08:56.069Z,7.73
2023-01-13T01:11:26.991Z,7.73
2023-01-13T01:13:56.904Z,7.81
2023-01-13T01:16:26.810Z,7.79
2023-01-13T01:18:55.685Z,7.85
2023-01-13T01:21:24.710Z,7.80
2023-01-13T01:23:52.149Z,7.79
2023-01-13T01:26:22.653Z,7.76
2023-01-13T01:28:50.372Z,7.78
2023-01-13T01:31:20.831Z,7.82
2023-01-13T01:33:48.154Z,7.82
2023-01-13T01:36:17.975Z,7.84
2023-01-13T01:38:45.719Z,7.80
2023-01-13T01:41:16.606Z,7.78
2023-01-13T01:44:25.894Z,7.77
2023-01-13T01:46:53.774Z,7.73
2023-01-13T01:49:32.360Z,7.71
2023-01-13T01:52:02.740Z,7.65
2023-01-13T01:54:43.989Z,7.68
2023-01-13T01:57:15.988Z,7.60
2023-01-13T01:59:44.662Z,7.62
2023-01-13T02:02:12.474Z,7.55
2023-01-13T02:04:50.288Z,7.54
2023-01-13T02:07:28.854Z,7.55
2023-01-13T02:09:58.997Z,7.52
2023-01-13T02:12:32.063Z,7.54
2023-01-13T02:15:10.441Z,7.43
2023-01-13T02:17:40.202Z,7.41
2023-01-13T02:20:12.904Z,7.37
2023-01-13T02:23:43.095Z,7.35
2023-01-13T02:26:32.114Z,7.49
2023-01-13T02:29:40.173Z,7.38
2023-01-13T02:32:27.250Z,7.38
2023-01-13T02:35:08.487Z,7.36
2023-01-13T02:37:39.214Z,7.35
2023-01-13T02:40:27.483Z,7.37
2023-01-13T02:43:35.927Z,7.33
2023-01-13T02:46:10.854Z,7.45
2023-01-13T02:48:39.789Z,7.30
2023-01-13T02:51:15.785Z,7.35
2023-01-13T02:54:20.942Z,7.35
2023-01-13T02:57:41.155Z,7.30
2023-01-13T03:00:09.351Z,7.43
2023-01-13T03:02:37.084Z,7.32
2023-01-13T03:05:05.806Z,7.30
2023-01-13T03:07:55.776Z,7.35
2023-01-13T03:10:49.792Z,7.37
2023-01-13T03:13:45.151Z,7.41
2023-01-13T03:16:27.876Z,7.44
2023-01-13T03:19:13.453Z,7.39
2023-01-13T03:22:09.003Z,7.35
2023-01-13T03:25:02.773Z,7.40
2023-01-13T03:27:38.413Z,7.44
2023-01-13T03:30:17.973Z,7.38
2023-01-13T03:32:52.929Z,7.39
2023-01-13T03:35:22.881Z,7.49
2023-01-13T03:38:04.145Z,7.46
2023-01-13T03:40:35.722Z,7.51
2023-01-13T03:43:28.291Z,7.48
2023-01-13T03:46:01.465Z,7.49
2023-01-13T03:48:33.149Z,7.52
2023-01-13T03:51:06.603Z,7.43
2023-01-13T03:53:39.498Z,7.47
2023-01-13T03:56:16.906Z,7.50
2023-01-13T03:58:48.653Z,7.53
2023-01-13T04:01:22.166Z,7.51
2023-01-13T04:04:06.187Z,7.51
2023-01-13T04:06:51.616Z,7.47
2023-01-13T04:09:43.507Z,7.56
2023-01-13T04:12:10.773Z,7.52
2023-01-13T04:14:38.869Z,7.54
2023-01-13T04:17:06.192Z,7.59
2023-01-13T04:19:33.251Z,7.57
2023-01-13T04:22:00.659Z,7.57
2023-01-13T04:24:28.098Z,7.60
2023-01-13T04:26:56.508Z,7.56
2023-01-13T04:29:23.813Z,7.53
2023-01-13T04:31:51.196Z,7.48
2023-01-13T04:34:18.257Z,7.60
2023-01-13T04:36:45.635Z,7.58
2023-01-13T04:39:12.801Z,7.63
2023-01-13T04:41:58.184Z,7.72
2023-01-13T04:44:26.425Z,7.57
2023-01-13T04:46:54.180Z,7.62
2023-01-13T04:49:21.264Z,7.68
2023-01-13T04:51:48.749Z,7.67
2023-01-13T04:54:16.288Z,7.73
2023-01-13T04:56:43.659Z,7.67
2023-01-13T04:59:13.247Z,7.73
2023-01-13T05:01:41.099Z,7.76
2023-01-13T05:04:08.980Z,7.75
2023-01-13T05:06:36.362Z,7.70
2023-01-13T05:09:03.669Z,7.75
2023-01-13T05:11:49.560Z,7.78
2023-01-13T05:14:35.095Z,7.81
2023-01-13T05:17:03.375Z,7.77
2023-01-13T05:19:33.381Z,7.76
2023-01-13T05:22:20.427Z,7.84
2023-01-13T05:25:06.285Z,7.81
2023-01-13T05:27:33.970Z,7.89
2023-01-13T05:30:00.987Z,7.85
2023-01-13T05:32:28.649Z,7.81
2023-01-13T05:34:56.224Z,7.93
2023-01-13T05:37:25.696Z,7.98
2023-01-13T05:40:11.119Z,7.90
2023-01-13T05:42:57.694Z,7.87
2023-01-13T05:45:25.034Z,7.92
2023-01-13T05:47:52.390Z,7.89
2023-01-13T05:50:19.543Z,7.85
2023-01-13T05:52:46.910Z,7.86
2023-01-13T05:55:14.719Z,7.92
2023-01-13T05:57:42.181Z,7.99
2023-01-13T06:00:09.899Z,7.97
2023-01-13T06:02:40.114Z,7.98
2023-01-13T06:05:07.789Z,7.91
2023-01-13T06:07:35.107Z,7.87
2023-01-13T06:10:02.265Z,7.89
2023-01-13T06:12:29.841Z,7.94
2023-01-13T06:14:56.928Z,7.93
2023-01-13T06:17:24.320Z,7.89
2023-01-13T06:19:51.424Z,7.93
2023-01-13T06:22:23.543Z,7.95
2023-01-13T06:24:53.632Z,8.01
2023-01-13T06:27:22.636Z,7.87
2023-01-13T06:29:49.896Z,7.88
2023-01-13T06:32:29.398Z,7.90
2023-01-13T06:35:06.553Z,7.87
2023-01-13T06:37:35.906Z,7.88
2023-01-13T06:40:06.545Z,7.94
2023-01-13T06:42:55.611Z,7.95
2023-01-13T06:45:25.434Z,8.05
2023-01-13T06:47:54.569Z,7.98
2023-01-13T06:50:21.686Z,7.91
2023-01-13T06:52:49.129Z,8.00
2023-01-13T06:55:16.393Z,7.97
2023-01-13T06:57:52.856Z,7.92
2023-01-13T07:00:21.668Z,7.98
2023-01-13T07:02:49.940Z,7.93
2023-01-13T07:05:18.233Z,8.01
2023-01-13T07:07:46.034Z,7.97
2023-01-13T07:10:22.333Z,7.89
2023-01-13T07:13:08.938Z,8.03
2023-01-13T07:15:36.096Z,8.03
2023-01-13T07:18:03.650Z,7.97
2023-01-13T07:20:31.608Z,7.95
2023-01-13T07:22:59.173Z,7.95
2023-01-13T07:25:26.274Z,7.92
2023-01-13T07:27:53.794Z,7.91
2023-01-13T07:30:20.984Z,8.02
2023-01-13T07:32:48.464Z,7.96
2023-01-13T07:35:15.770Z,7.94
2023-01-13T07:37:43.221Z,7.93
2023-01-13T07:40:11.028Z,7.98
2023-01-13T07:42:57.680Z,7.90
2023-01-13T07:45:24.822Z,8.05
2023-01-13T07:47:53.680Z,7.98
2023-01-13T07:50:21.682Z,7.98
2023-01-13T07:52:49.719Z,8.07
2023-01-13T07:55:17.069Z,7.98
2023-01-13T07:57:44.642Z,8.05
2023-01-13T08:00:13.090Z,8.01
2023-01-13T08:02:41.070Z,8.03
2023-01-13T08:05:08.782Z,8.12
2023-01-13T08:07:36.154Z,8.10
2023-01-13T08:10:04.523Z,8.12
2023-01-13T08:12:54.585Z,8.08
2023-01-13T08:15:24.132Z,8.05
2023-01-13T08:17:51.583Z,8.12
2023-01-13T08:20:19.230Z,8.13
2023-01-13T08:22:46.775Z,8.13
2023-01-13T08:25:13.908Z,8.18
2023-01-13T08:27:41.474Z,8.15
2023-01-13T08:30:09.721Z,8.24
2023-01-13T08:32:37.095Z,8.24
2023-01-13T08:35:04.367Z,8.23
2023-01-13T08:37:31.787Z,8.24
2023-01-13T08:39:58.813Z,8.17
2023-01-13T08:42:26.945Z,8.20
2023-01-13T08:44:54.808Z,8.23
2023-01-13T08:47:22.718Z,8.22
2023-01-13T08:49:50.098Z,8.21
2023-01-13T08:52:17.513Z,8.18
2023-01-13T08:54:44.685Z,8.22
2023-01-13T08:57:12.665Z,8.24
2023-01-13T08:59:39.895Z,8.34
2023-01-13T09:02:15.411Z,8.25
2023-01-13T09:04:43.425Z,8.24
2023-01-13T09:07:10.990Z,8.28
2023-01-13T09:09:38.960Z,8.35
2023-01-13T09:12:25.573Z,8.36
2023-01-13T09:14:53.030Z,8.30
2023-01-13T09:17:20.683Z,8.34
2023-01-13T09:19:47.829Z,8.35
2023-01-13T09:22:17.926Z,8.31
2023-01-13T09:24:45.514Z,8.40
2023-01-13T09:27:15.028Z,8.36
2023-01-13T09:29:42.198Z,8.39
2023-01-13T09:32:14.837Z,8.32
2023-01-13T09:35:00.349Z,8.41
2023-01-13T09:37:32.556Z,8.40
2023-01-13T09:40:00.622Z,8.43
2023-01-13T09:43:07.857Z,8.35
2023-01-13T09:45:42.611Z,8.46
2023-01-13T09:48:25.558Z,8.43
2023-01-13T09:51:18.799Z,8.40
2023-01-13T09:54:11.158Z,8.37
2023-01-13T09:56:38.399Z,8.66
2023-01-13T09:59:11.715Z,8.59
2023-01-13T10:01:59.374Z,8.67
2023-01-13T10:04:27.047Z,8.79
2023-01-13T10:06:59.599Z,9.16
2023-01-13T10:09:49.717Z,8.91
2023-01-13T10:12:41.130Z,8.87
2023-01-13T10:15:17.910Z,9.12
2023-01-13T10:17:54.315Z,9.14
2023-01-13T10:20:24.978Z,9.06
2023-01-13T10:23:07.078Z,8.81
2023-01-13T10:25:40.445Z,8.84
2023-01-13T10:28:13.538Z,8.82
2023-01-13T10:30:44.091Z,8.87
2023-01-13T10:33:17.732Z,8.80
2023-01-13T10:36:01.430Z,8.85
2023-01-13T10:38:36.644Z,8.91
2023-01-13T10:41:20.394Z,8.93
2023-01-13T10:44:04.471Z,8.84
2023-01-13T10:46:34.054Z,8.94
2023-01-13T10:49:03.662Z,8.83
2023-01-13T10:51:43.055Z,8.94
2023-01-13T10:54:13.026Z,9.01
2023-01-13T10:56:43.422Z,8.94
2023-01-13T10:59:22.204Z,9.03
2023-01-13T11:02:04.056Z,9.04
2023-01-13T11:04:42.728Z,9.11
2023-01-13T11:07:45.754Z,9.09
2023-01-13T11:10:27.397Z,8.91
2023-01-13T11:13:15.398Z,8.93
2023-01-13T11:15:47.478Z,9.02
2023-01-13T11:18:40.664Z,9.01
2023-01-13T11:21:21.901Z,9.09
2023-01-13T11:24:14.767Z,9.20
2023-01-13T11:26:53.944Z,9.20
2023-01-13T11:29:31.736Z,9.26
2023-01-13T11:32:22.476Z,9.28
2023-01-13T11:35:02.150Z,9.20
2023-01-13T11:37:34.819Z,9.17
2023-01-13T11:40:11.941Z,9.23
2023-01-13T11:42:59.976Z,9.24
2023-01-13T11:45:56.227Z,9.33
2023-01-13T11:48:27.339Z,9.43
2023-01-13T11:51:22.849Z,9.26
2023-01-13T11:54:01.010Z,9.25
2023-01-13T11:56:40.757Z,9.21
2023-01-13T11:59:32.462Z,9.25
2023-01-13T12:02:12.262Z,9.33
2023-01-13T12:04:40.070Z,9.32
2023-01-13T12:07:40.330Z,9.39
2023-01-13T12:10:28.817Z,9.22
2023-01-13T12:13:24.794Z,9.16
2023-01-13T12:16:01.169Z,9.05
2023-01-13T12:18:40.699Z,9.13
2023-01-13T12:21:23.586Z,9.24
2023-01-13T12:24:12.295Z,9.21
2023-01-13T12:26:44.965Z,9.18
2023-01-13T12:29:19.121Z,9.06
2023-01-13T12:31:50.623Z,9.03
2023-01-13T12:34:39.025Z,9.08
2023-01-13T12:37:25.004Z,9.01
2023-01-13T12:40:27.246Z,8.89
2023-01-13T12:43:22.193Z,8.94
2023-01-13T12:45:49.414Z,9.06
2023-01-13T12:48:53.086Z,8.78
2023-01-13T12:51:52.480Z,8.72
2023-01-13T12:54:38.713Z,8.70
2023-01-13T12:57:29.394Z,8.60
2023-01-13T12:59:59.752Z,8.59
2023-01-13T13:02:31.215Z,8.53
2023-01-13T13:05:24.480Z,8.52
2023-01-13T13:08:07.010Z,8.54
2023-01-13T13:10:40.781Z,8.54
2023-01-13T13:13:41.538Z,8.49
2023-01-13T13:16:37.335Z,8.39
2023-01-13T13:19:22.659Z,8.40
2023-01-13T13:22:18.008Z,8.39
2023-01-13T13:24:51.951Z,8.33
2023-01-13T13:27:19.879Z,8.42
2023-01-13T13:30:28.847Z,8.40
2023-01-13T13:33:05.015Z,8.39
2023-01-13T13:35:51.962Z,8.53
2023-01-13T13:38:41.320Z,8.34
2023-01-13T13:41:54.580Z,8.32
2023-01-13T13:45:01.349Z,8.34
2023-01-13T13:47:39.406Z,8.41
2023-01-13T13:50:20.942Z,8.35
2023-01-13T13:53:05.919Z,8.34
2023-01-13T13:55:33.689Z,8.35
2023-01-13T13:58:01.906Z,8.33
2023-01-13T14:00:33.441Z,8.27
2023-01-13T14:03:04.168Z,8.27
2023-01-13T14:05:36.299Z,8.24
2023-01-13T14:08:09.327Z,8.27
2023-01-13T14:10:39.970Z,8.30
2023-01-13T14:13:14.717Z,8.18
2023-01-13T14:15:42.908Z,8.23
2023-01-13T14:18:17.442Z,8.13
2023-01-13T14:20:53.940Z,8.29
2023-01-13T14:23:26.602Z,8.18
2023-01-13T14:25:54.727Z,8.25
2023-01-13T14:28:28.414Z,8.16
2023-01-13T14:30:57.419Z,8.04
2023-01-13T14:33:49.960Z,8.13
2023-01-13T14:36:32.720Z,8.01
2023-01-13T14:39:03.117Z,7.98
2023-01-13T14:41:42.881Z,7.90
2023-01-13T14:44:27.600Z,7.84
2023-01-13T14:46:58.177Z,7.89
2023-01-13T14:49:39.548Z,7.84
2023-01-13T14:52:19.097Z,7.84
2023-01-13T14:54:49.331Z,7.76
2023-01-13T14:57:33.802Z,7.78
2023-01-13T15:00:08.106Z,7.86
2023-01-13T15:02:58.096Z,7.72
2023-01-13T15:05:25.480Z,7.71
2023-01-13T15:08:09.295Z,7.77
2023-01-13T15:10:46.818Z,7.74
2023-01-13T15:13:38.623Z,7.70
2023-01-13T15:16:27.511Z,7.68
2023-01-13T15:18:56.596Z,7.67
2023-01-13T15:21:25.174Z,7.61
2023-01-13T15:23:52.886Z,7.62
2023-01-13T15:26:29.271Z,7.71
2023-01-13T15:28:58.430Z,7.72
2023-01-13T15:31:27.282Z,7.69
2023-01-13T15:33:55.489Z,7.72
2023-01-13T15:36:27.528Z,7.75
2023-01-13T15:38:56.498Z,7.79
2023-01-13T15:41:43.514Z,7.67
2023-01-13T15:44:32.482Z,7.66
2023-01-13T15:47:03.177Z,7.77
2023-01-13T15:49:41.085Z,7.66
2023-01-13T15:52:26.223Z,7.73
2023-01-13T15:54:54.872Z,7.73
2023-01-13T15:57:24.804Z,7.61
2023-01-13T15:59:56.698Z,7.63
2023-01-13T16:02:25.394Z,7.55
2023-01-13T16:04:57.029Z,7.56
2023-01-13T16:07:25.917Z,7.67
2023-01-13T16:09:53.995Z,7.63
2023-01-13T16:12:21.351Z,7.63
2023-01-13T16:14:49.546Z,7.59
2023-01-13T16:17:23.045Z,7.63
2023-01-13T16:19:51.561Z,7.68
2023-01-13T16:22:19.234Z,7.64
2023-01-13T16:24:48.341Z,7.54
2023-01-13T16:27:21.349Z,7.69
2023-01-13T16:29:49.909Z,7.46
2023-01-13T16:32:18.245Z,7.47
2023-01-13T16:34:46.820Z,7.51
2023-01-13T16:37:22.041Z,7.44
2023-01-13T16:39:50.904Z,7.49
2023-01-13T16:42:18.910Z,7.54
2023-01-13T16:44:48.405Z,7.36
2023-01-13T16:47:17.827Z,7.37
2023-01-13T16:49:45.645Z,7.29
2023-01-13T16:52:13.435Z,7.39
2023-01-13T16:54:41.274Z,7.32
2023-01-13T16:57:13.577Z,7.26
2023-01-13T16:59:41.211Z,7.23
2023-01-13T17:02:19.717Z,7.15
2023-01-13T17:04:48.634Z,7.15
2023-01-13T17:07:17.506Z,6.99
2023-01-13T17:09:45.382Z,7.10
2023-01-13T17:12:12.780Z,7.00
2023-01-13T17:14:43.246Z,7.00
2023-01-13T17:17:21.717Z,6.97
2023-01-13T17:19:49.711Z,6.90
2023-01-13T17:22:17.223Z,6.81
2023-01-13T17:24:46.115Z,6.83
2023-01-13T17:27:15.250Z,6.82
2023-01-13T17:29:43.166Z,6.80
2023-01-13T17:32:18.637Z,6.71
2023-01-13T17:34:46.450Z,6.64
2023-01-13T17:37:14.683Z,6.61
2023-01-13T17:39:44.285Z,6.70
2023-01-13T17:42:12.375Z,6.62
2023-01-13T17:44:40.122Z,6.72
2023-01-13T17:47:08.626Z,6.77
2023-01-13T17:49:36.556Z,6.73
2023-01-13T17:52:04.035Z,6.85
2023-01-13T17:54:31.649Z,6.69
2023-01-13T17:56:59.070Z,6.69
2023-01-13T17:59:26.699Z,6.63
2023-01-13T18:01:54.101Z,6.66
2023-01-13T18:04:24.584Z,6.64
2023-01-13T18:06:52.077Z,6.59
2023-01-13T18:09:20.069Z,6.45
2023-01-13T18:11:47.511Z,6.57
2023-01-13T18:14:16.104Z,6.46
2023-01-13T18:16:43.945Z,6.45
2023-01-13T18:19:30.172Z,6.39
2023-01-13T18:22:16.033Z,6.37
2023-01-13T18:25:02.251Z,6.32
2023-01-13T18:27:35.606Z,6.17
2023-01-13T18:30:04.328Z,6.11
2023-01-13T18:32:33.911Z,6.10
2023-01-13T18:35:06.706Z,6.08
2023-01-13T18:37:42.334Z,6.04
2023-01-13T18:40:13.017Z,5.99
2023-01-13T18:42:58.353Z,6.00
2023-01-13T18:45:28.808Z,5.99
2023-01-13T18:47:58.688Z,5.85
2023-01-13T18:50:28.311Z,5.94
2023-01-13T18:52:56.683Z,6.04
2023-01-13T18:55:25.424Z,5.97
2023-01-13T18:57:53.695Z,5.88
2023-01-13T19:00:22.868Z,5.71
2023-01-13T19:05:36.230Z,5.71
2023-01-13T19:08:04.650Z,5.80
2023-01-13T19:10:32.970Z,5.83
2023-01-13T19:13:01.686Z,5.89
2023-01-13T19:15:30.318Z,5.67
2023-01-13T19:17:58.185Z,5.67
2023-01-13T19:20:26.108Z,5.70
2023-01-13T19:22:56.260Z,5.73
2023-01-13T19:25:24.944Z,5.75
2023-01-13T19:27:54.465Z,5.77
2023-01-13T19:30:24.474Z,5.76
2023-01-13T19:32:53.387Z,5.74
2023-01-13T19:35:30.001Z,5.75
2023-01-13T19:37:58.609Z,5.73
2023-01-13T19:40:26.561Z,5.64
2023-01-13T19:43:12.547Z,5.63
2023-01-13T19:45:41.271Z,5.71
2023-01-13T19:48:08.635Z,5.60
2023-01-13T19:50:39.820Z,5.62
2023-01-13T19:53:07.879Z,5.63
2023-01-13T19:55:35.596Z,5.63
2023-01-13T19:58:03.943Z,5.61
2023-01-13T20:00:32.549Z,5.51
2023-01-13T20:03:03.560Z,5.53
2023-01-13T20:05:31.353Z,5.49
2023-01-13T20:07:58.697Z,5.43
2023-01-13T20:10:26.533Z,5.34
2023-01-13T20:12:53.911Z,5.43
2023-01-13T20:15:21.494Z,5.36
2023-01-13T20:17:49.259Z,5.30
2023-01-13T20:20:18.644Z,5.18
2023-01-13T20:22:46.363Z,5.23
2023-01-13T20:25:16.988Z,5.12
2023-01-13T20:27:46.356Z,5.27
2023-01-13T20:30:14.460Z,5.20
2023-01-13T20:32:43.133Z,5.20
2023-01-13T20:35:11.767Z,5.19
2023-01-13T20:37:40.255Z,5.26
2023-01-13T20:40:10.536Z,5.23
2023-01-13T20:42:45.297Z,5.22
2023-01-13T20:45:17.808Z,5.20
2023-01-13T20:47:45.990Z,5.12
2023-01-13T20:50:15.052Z,5.14
2023-01-13T20:52:42.455Z,5.07
2023-01-13T20:55:11.623Z,5.05
2023-01-13T20:57:40.457Z,5.03
2023-01-13T21:00:10.434Z,5.01
2023-01-13T21:02:39.949Z,5.13
2023-01-13T21:05:08.660Z,5.05
2023-01-13T21:07:36.062Z,5.03
2023-01-13T21:10:04.348Z,5.02
2023-01-13T21:12:55.291Z,5.04
2023-01-13T21:15:24.098Z,4.98
2023-01-13T21:18:10.276Z,4.92
2023-01-13T21:20:39.805Z,5.00
2023-01-13T21:23:07.966Z,5.11
2023-01-13T21:25:37.364Z,4.96
2023-01-13T21:28:06.009Z,4.99
2023-01-13T21:30:34.373Z,5.01
2023-01-13T21:33:04.011Z,5.07
2023-01-13T21:35:31.612Z,4.90
2023-01-13T21:37:59.293Z,5.04
2023-01-13T21:40:27.250Z,4.94
2023-01-13T21:43:13.466Z,5.00
2023-01-13T21:46:00.126Z,4.99
2023-01-13T21:48:27.514Z,5.03
2023-01-13T21:50:59.231Z,5.03
2023-01-13T21:53:26.447Z,4.98
2023-01-13T21:55:54.045Z,4.97
2023-01-13T21:58:21.140Z,4.98
2023-01-13T22:00:49.812Z,5.01
2023-01-13T22:03:18.726Z,5.15
2023-01-13T22:05:46.599Z,5.13
2023-01-13T22:08:13.788Z,5.20
2023-01-13T22:11:10.570Z,5.20
2023-01-13T22:14:16.245Z,5.26
2023-01-13T22:16:49.456Z,5.31
2023-01-13T22:19:18.272Z,5.20
2023-01-13T22:21:45.725Z,5.30
2023-01-13T22:24:12.873Z,5.34
2023-01-13T22:26:40.375Z,5.24
2023-01-13T22:29:07.441Z,5.28
2023-01-13T22:31:35.346Z,5.28
2023-01-13T22:34:02.587Z,5.21
2023-01-13T22:36:30.049Z,5.29
2023-01-13T22:38:57.192Z,5.27
2023-01-13T22:41:24.733Z,5.18
2023-01-13T22:43:51.986Z,5.24
2023-01-13T22:46:19.600Z,5.14
2023-01-13T22:48:48.350Z,5.20
2023-01-13T22:51:18.745Z,5.23
2023-01-13T22:53:46.053Z,5.16
2023-01-13T22:56:22.222Z,5.19
2023-01-13T22:58:53.835Z,5.13
2023-01-13T23:01:22.404Z,5.22
2023-01-13T23:03:50.627Z,5.25
2023-01-13T23:06:19.652Z,5.31
2023-01-13T23:08:47.653Z,5.24
2023-01-13T23:11:17.928Z,5.25
2023-01-13T23:13:45.249Z,5.23
2023-01-13T23:16:15.350Z,5.14
2023-01-13T23:18:45.245Z,5.28
2023-01-13T23:21:18.064Z,5.21
2023-01-13T23:23:45.966Z,5.26
2023-01-13T23:26:13.574Z,5.25
2023-01-13T23:28:40.882Z,5.21
2023-01-13T23:31:17.447Z,5.28
2023-01-13T23:33:45.327Z,5.16
2023-01-13T23:36:16.102Z,5.25
2023-01-13T23:38:43.639Z,5.24
2023-01-13T23:41:19.693Z,5.17
2023-01-13T23:44:00.263Z,5.18
2023-01-13T23:46:30.157Z,5.18
2023-01-13T23:48:57.360Z,5.09
2023-01-13T23:51:26.362Z,5.00
2023-01-13T23:53:54.163Z,5.09
2023-01-13T23:56:26.834Z,5.10
2023-01-13T23:58:54.504Z,5.02
